Terminal Aerodrome Forecast
Issued by NWS Wichita, KS

Home | Current Version | Previous Version | Graphics & Text | Print | Product List | Glossary On
Versions: 1 2 3 4 5 6 7 8 9 10 11 12 13 14 15 16 17 18
357
FTUS43 KICT 050541 AAA
TAFICT
TAF AMD
KICT 050541Z 0506/0606 19005KT 5SM BR SKC
      TEMPO 0506/0510 2SM BR
     FM051400 18011KT P6SM SCT250
     FM051700 18016G24KT P6SM BKN250
     FM060000 17006KT P6SM BKN250=

USA.gov is the U.S. government's official web portal to all federal, state and local government web resources and services.